Etusivu
METAR-TAF:

METAR-TAF

Lentoasemat :

Thoothukudi, Intia

Leveyspiiri: 8-43-27N, Pituuspiiri: 78-01-33E, korkeus merenpinnasta: 39 m

Tämänhetkinen sää

Tämä raportti tehtiin 59 minuuttia sitten, kello 11.00 UTC
Tuuli 10 kn lännestä/luoteesta puuskistuen 20 kn:hen
Lämpötila 33°C
Kosteus 56%
Ilmanpaine 1003 hPa
Näkyvyys: 6000 m
Muutamia pilviä 1800 ft:n korkeudessa

METAR: VOTK 221100Z 30010G20KT 6000 FEW018 33/23 Q1003 NOSIG

Aika: 17:29 (11:59 UTC)


TAF: puuttuu

Säähavainnot ja -ennusteet yli 4000 lentoasemalta (METAR- ja TAF-raportit).

Käytössä olevat sääasemat on merkitty karttaan keltaisilla ja punaisilla pisteillä.

Aseta hiiri pisteen päälle nähdäksesi sääaseman nimen.

Klikkaa sitten nähdäksesi säähavainnot ja -ennusteet.

Kartan vaihtaminen: klikkaa mustalla rastilla varustettuja vihreitä pisteitä, niin voit zoomata sisään; viivalla varustettua vihreää pistettä, niin voit zoomata ulos tai vihreitä nuolia, niin pääset viereisille kartoille.


METAR-TAF: